logo
Search for airport 
image banner adimage banner adimage banner ad
image banner ad

ZJSY - Sanya/Phoenix

Located in Sanya, China

ICAO - ZJSY, IATA - SYX

Data provided by Airmate  

General information

Coordinates: N18°18'6" E109°24'48"
Elevation is 95 feet MSL.
 
View others Airports in Hainan Province

Operational data

Special qualification required
Current time UTC:
Current local time:
Weather
METAR: ZJSY 161900Z 10003MPS 9999 -SHRA FEW020 SCT040 27/26 Q1004 NOSIG
TAF: TAF ZJSY 161503Z 1618/1718 09004MPS 9999 SCT020 TX32/1706Z TN25/1621Z TEMPO 1618/1624 2500 TSRA SCT016 FEW025CB BKN040
View NOTAMs / SUP AIP / TFR affecting this airport [VIEW]
Communications frequencies: [VIEW]

Runways:

RWY identifierQFULength (ft)Width (ft)SurfaceLDA (ft)
0882°11155148CON
26262°11155148CON

Airport contact information

Address: Sanya China

Satellite view of ZJSY